Lincoln Hwy 8

*Note: All times are displayed in the local standard time of the station location.
**Rain - Equipment is designed to accurately record liquid precipitation; under conditions when precipitation is not in liquid form, the data displayed may not properly reflect rainfall values.

Date Max Temp
(°C)
Min Temp
(°C)
Avg Temp
(°C)
Rain (mm) Avg RH (%)
Mon, Apr 23, 2018 11.0 0.2 6.3 0.0 62.3
Sun, Apr 22, 2018 16.2 -1.3 8.1 0.0 47.0
Sat, Apr 21, 2018 14.5 -2.3 6.5 0.0 52.6
Fri, Apr 20, 2018 8.7 -0.9 3.3 0.0 59.6
Thu, Apr 19, 2018 4.6 1.0 2.3 0.0 65.3
Wed, Apr 18, 2018 3.7 0.8 2.2 0.0 77.0
Tue, Apr 17, 2018 1.7 -0.9 0.7 0.0 74.7
DateTime Avg Temp (°C) Rain (mm) RH (%)
Tue, Apr 24, 2018 18:00 13.2 0.2 76.8
Tue, Apr 24, 2018 17:00 14.4 0.0 64.3
Tue, Apr 24, 2018 16:00 16.5 0.0 48.5
Tue, Apr 24, 2018 15:00 17.6 0.0 41.8
Tue, Apr 24, 2018 14:00 17.7 0.0 42.5
Tue, Apr 24, 2018 13:00 17.0 0.0 43.3
Tue, Apr 24, 2018 12:00 15.5 0.0 48.3
Tue, Apr 24, 2018 11:00 13.8 0.0 58.5
Tue, Apr 24, 2018 10:00 13.4 0.0 63.0
Tue, Apr 24, 2018 09:00 13.5 0.0 62.8
Tue, Apr 24, 2018 08:00 13.2 0.0 59.5
Tue, Apr 24, 2018 07:00 12.7 0.0 61.5
Tue, Apr 24, 2018 06:00 12.7 0.0 60.3
Tue, Apr 24, 2018 05:00 12.9 0.0 57.8
Tue, Apr 24, 2018 04:00 10.3 0.0 63.3
Tue, Apr 24, 2018 03:00 5.1 0.0 77.5
Tue, Apr 24, 2018 02:00 4.5 0.0 82.5
Tue, Apr 24, 2018 01:00 4.4 0.0 80.0
Tue, Apr 24, 2018 00:00 4.9 0.0 73.3
Mon, Apr 23, 2018 23:00 5.7 0.0 67.5
Mon, Apr 23, 2018 22:00 5.8 0.0 67.0
Mon, Apr 23, 2018 21:00 6.1 0.0 65.0
Mon, Apr 23, 2018 20:00 7.4 0.0 59.3
Mon, Apr 23, 2018 19:00 8.7 0.0 54.3
Mon, Apr 23, 2018 18:00 9.2 0.0 54.0
Mon, Apr 23, 2018 17:00 10.0 0.0 52.3
Mon, Apr 23, 2018 16:00 10.8 0.0 50.0
Mon, Apr 23, 2018 15:00 10.6 0.0 52.8
Mon, Apr 23, 2018 14:00 10.0 0.0 55.3
Mon, Apr 23, 2018 13:00 10.0 0.0 52.5
Mon, Apr 23, 2018 12:00 9.8 0.0 53.8
Mon, Apr 23, 2018 11:00 8.3 0.0 63.8
Mon, Apr 23, 2018 10:00 8.1 0.0 63.3
Mon, Apr 23, 2018 09:00 6.6 0.0 70.0
Mon, Apr 23, 2018 08:00 4.2 0.0 73.3
Mon, Apr 23, 2018 07:00 0.7 0.0 79.5
Mon, Apr 23, 2018 06:00 0.7 0.0 77.0
Mon, Apr 23, 2018 05:00 1.0 0.0 71.8
Mon, Apr 23, 2018 04:00 2.5 0.0 60.0
Mon, Apr 23, 2018 03:00 2.9 0.0 59.5
Mon, Apr 23, 2018 02:00 3.4 0.0 58.3
Mon, Apr 23, 2018 01:00 3.2 0.0 61.8
Mon, Apr 23, 2018 00:00 4.3 0.0 56.5
Sun, Apr 22, 2018 23:00 9.7 0.0 33.5
Sun, Apr 22, 2018 22:00 9.7 0.0 32.3
Sun, Apr 22, 2018 21:00 9.6 0.0 36.8
Sun, Apr 22, 2018 20:00 14.3 0.0 24.0
Sun, Apr 22, 2018 19:00 15.9 0.0 19.5


asterix Register now to access more data! asterix